sensor_id;sensor_type;location;lat;lon;timestamp;pressure;altitude;pressure_sealevel;temperature;humidity
21980;BME280;11154;48.558;9.234;2022-12-24T00:00:19;97017.75;;;14.20;95.11
21980;BME280;11154;48.558;9.234;2022-12-24T00:02:21;97026.38;;;14.22;95.25
21980;BME280;11154;48.558;9.234;2022-12-24T00:04:22;97026.38;;;14.22;95.38
21980;BME280;11154;48.558;9.234;2022-12-24T00:06:24;97031.75;;;14.22;95.72
21980;BME280;11154;48.558;9.234;2022-12-24T00:08:25;97041.63;;;14.21;96.04
21980;BME280;11154;48.558;9.234;2022-12-24T00:10:28;97042.63;;;14.20;96.15
21980;BME280;11154;48.558;9.234;2022-12-24T00:12:31;97041.63;;;14.21;96.25
21980;BME280;11154;48.558;9.234;2022-12-24T00:14:32;97041.19;;;14.18;97.02
21980;BME280;11154;48.558;9.234;2022-12-24T00:16:34;97040.38;;;14.17;97.01
21980;BME280;11154;48.558;9.234;2022-12-24T00:18:36;97040.53;;;14.16;97.01
21980;BME280;11154;48.558;9.234;2022-12-24T00:20:37;97023.88;;;14.14;97.08
21980;BME280;11154;48.558;9.234;2022-12-24T00:22:39;97030.44;;;14.11;97.13
21980;BME280;11154;48.558;9.234;2022-12-24T00:24:40;97035.97;;;14.10;97.04
21980;BME280;11154;48.558;9.234;2022-12-24T00:26:43;97043.34;;;14.08;96.50
21980;BME280;11154;48.558;9.234;2022-12-24T00:28:45;97054.22;;;14.06;96.08
21980;BME280;11154;48.558;9.234;2022-12-24T00:30:47;97056.72;;;14.08;95.90
21980;BME280;11154;48.558;9.234;2022-12-24T00:32:48;97056.91;;;14.06;95.83
21980;BME280;11154;48.558;9.234;2022-12-24T00:34:50;97057.09;;;14.05;95.53
21980;BME280;11154;48.558;9.234;2022-12-24T00:36:52;97066.97;;;14.04;95.68
21980;BME280;11154;48.558;9.234;2022-12-24T00:38:53;97065.94;;;14.05;95.53
21980;BME280;11154;48.558;9.234;2022-12-24T00:40:57;97057.53;;;14.08;95.55
21980;BME280;11154;48.558;9.234;2022-12-24T00:43:01;97053.84;;;14.09;95.10
21980;BME280;11154;48.558;9.234;2022-12-24T00:45:03;97054.69;;;14.10;95.04
21980;BME280;11154;48.558;9.234;2022-12-24T00:47:05;97067.03;;;14.11;94.75
21980;BME280;11154;48.558;9.234;2022-12-24T00:49:08;97067.41;;;14.08;94.44
21980;BME280;11154;48.558;9.234;2022-12-24T00:51:09;97079.94;;;14.07;94.35
21980;BME280;11154;48.558;9.234;2022-12-24T00:53:11;97078.47;;;14.05;93.96
21980;BME280;11154;48.558;9.234;2022-12-24T00:55:13;97078.47;;;14.05;93.85
21980;BME280;11154;48.558;9.234;2022-12-24T00:57:14;97069.66;;;14.04;93.52
21980;BME280;11154;48.558;9.234;2022-12-24T00:59:17;97067.16;;;14.03;92.99
21980;BME280;11154;48.558;9.234;2022-12-24T01:01:19;97083.03;;;14.04;93.05
21980;BME280;11154;48.558;9.234;2022-12-24T01:03:21;97078.47;;;14.05;92.56
21980;BME280;11154;48.558;9.234;2022-12-24T01:05:23;97076.81;;;14.04;91.93
21980;BME280;11154;48.558;9.234;2022-12-24T01:07:23;97081.97;;;14.05;92.07
21980;BME280;11154;48.558;9.234;2022-12-24T01:09:25;97085.09;;;14.09;91.27
21980;BME280;11154;48.558;9.234;2022-12-24T01:11:27;97083.09;;;14.11;91.38
21980;BME280;11154;48.558;9.234;2022-12-24T01:13:28;97079.94;;;14.07;91.27
21980;BME280;11154;48.558;9.234;2022-12-24T01:15:31;97080.97;;;14.06;91.14
21980;BME280;11154;48.558;9.234;2022-12-24T01:17:33;97089.53;;;14.02;91.40
21980;BME280;11154;48.558;9.234;2022-12-24T01:19:35;97094.91;;;14.02;91.16
21980;BME280;11154;48.558;9.234;2022-12-24T01:21:37;97104.78;;;14.01;91.07
21980;BME280;11154;48.558;9.234;2022-12-24T01:23:39;97116.28;;;14.02;90.74
21980;BME280;11154;48.558;9.234;2022-12-24T01:25:40;97113.00;;;14.00;91.14
21980;BME280;11154;48.558;9.234;2022-12-24T01:27:42;97126.28;;;13.93;91.08
21980;BME280;11154;48.558;9.234;2022-12-24T01:29:43;97119.69;;;13.89;90.67
21980;BME280;11154;48.558;9.234;2022-12-24T01:31:46;97125.22;;;13.88;90.59
21980;BME280;11154;48.558;9.234;2022-12-24T01:33:48;97134.25;;;13.87;90.43
21980;BME280;11154;48.558;9.234;2022-12-24T01:35:50;97133.41;;;13.86;90.05
21980;BME280;11154;48.558;9.234;2022-12-24T01:37:52;97137.38;;;13.90;89.68
21980;BME280;11154;48.558;9.234;2022-12-24T01:39:53;97132.19;;;13.89;89.23
21980;BME280;11154;48.558;9.234;2022-12-24T01:42:17;97141.72;;;13.91;88.97
21980;BME280;11154;48.558;9.234;2022-12-24T01:44:40;97136.97;;;13.93;89.04
21980;BME280;11154;48.558;9.234;2022-12-24T01:46:43;97135.31;;;13.92;88.39
21980;BME280;11154;48.558;9.234;2022-12-24T01:48:48;97136.97;;;13.93;88.28
21980;BME280;11154;48.558;9.234;2022-12-24T01:50:57;97142.41;;;14.00;88.05
21980;BME280;11154;48.558;9.234;2022-12-24T01:53:01;97146.53;;;14.02;87.44
21980;BME280;11154;48.558;9.234;2022-12-24T01:55:07;97152.69;;;14.03;87.38
21980;BME280;11154;48.558;9.234;2022-12-24T01:57:15;97172.69;;;14.07;87.54
21980;BME280;11154;48.558;9.234;2022-12-24T01:59:19;97158.13;;;14.09;87.55
21980;BME280;11154;48.558;9.234;2022-12-24T02:01:21;97124.06;;;13.20;91.06
21980;BME280;11154;48.558;9.234;2022-12-24T02:03:23;97129.31;;;12.70;95.02
21980;BME280;11154;48.558;9.234;2022-12-24T02:05:30;97136.22;;;12.50;97.03
21980;BME280;11154;48.558;9.234;2022-12-24T02:07:33;97135.81;;;12.39;97.91
21980;BME280;11154;48.558;9.234;2022-12-24T02:09:36;97132.13;;;12.25;98.90
21980;BME280;11154;48.558;9.234;2022-12-24T02:11:40;97127.41;;;12.13;100.00
21980;BME280;11154;48.558;9.234;2022-12-24T02:13:46;97148.63;;;12.07;100.00
21980;BME280;11154;48.558;9.234;2022-12-24T02:16:07;97140.22;;;11.95;100.00
21980;BME280;11154;48.558;9.234;2022-12-24T02:18:15;97133.97;;;11.88;100.00
21980;BME280;11154;48.558;9.234;2022-12-24T02:20:48;97127.69;;;11.81;100.00
21980;BME280;11154;48.558;9.234;2022-12-24T02:23:14;97138.88;;;11.77;100.00
21980;BME280;11154;48.558;9.234;2022-12-24T02:25:47;97134.44;;;11.69;100.00
21980;BME280;11154;48.558;9.234;2022-12-24T02:27:56;97155.56;;;11.71;100.00
21980;BME280;11154;48.558;9.234;2022-12-24T02:30:10;97157.03;;;11.73;100.00
21980;BME280;11154;48.558;9.234;2022-12-24T02:32:17;97163.06;;;11.67;100.00
21980;BME280;11154;48.558;9.234;2022-12-24T02:34:25;97169.34;;;11.52;100.00
21980;BME280;11154;48.558;9.234;2022-12-24T02:36:31;97165.38;;;11.40;100.00
21980;BME280;11154;48.558;9.234;2022-12-24T02:38:37;97175.75;;;11.27;100.00
21980;BME280;11154;48.558;9.234;2022-12-24T02:40:46;97170.44;;;11.27;100.00
21980;BME280;11154;48.558;9.234;2022-12-24T02:42:55;97175.75;;;11.27;100.00
21980;BME280;11154;48.558;9.234;2022-12-24T02:45:01;97160.94;;;11.33;100.00
21980;BME280;11154;48.558;9.234;2022-12-24T02:47:07;97161.56;;;11.35;100.00
21980;BME280;11154;48.558;9.234;2022-12-24T02:49:10;97164.38;;;11.41;100.00
21980;BME280;11154;48.558;9.234;2022-12-24T02:51:12;97178.66;;;11.48;100.00
21980;BME280;11154;48.558;9.234;2022-12-24T02:53:14;97176.97;;;11.55;100.00
21980;BME280;11154;48.558;9.234;2022-12-24T02:55:17;97180.13;;;11.58;100.00
21980;BME280;11154;48.558;9.234;2022-12-24T02:57:24;97175.81;;;11.57;100.00
21980;BME280;11154;48.558;9.234;2022-12-24T02:59:38;97175.44;;;11.60;100.00
21980;BME280;11154;48.558;9.234;2022-12-24T03:01:50;97185.94;;;11.62;100.00
21980;BME280;11154;48.558;9.234;2022-12-24T03:04:07;97178.75;;;11.62;100.00
21980;BME280;11154;48.558;9.234;2022-12-24T03:06:16;97183.91;;;11.64;100.00
21980;BME280;11154;48.558;9.234;2022-12-24T03:08:29;97193.56;;;11.65;100.00
21980;BME280;11154;48.558;9.234;2022-12-24T03:10:39;97186.56;;;11.64;100.00
21980;BME280;11154;48.558;9.234;2022-12-24T03:12:44;97187.59;;;11.63;100.00
21980;BME280;11154;48.558;9.234;2022-12-24T03:14:47;97190.41;;;11.61;100.00
21980;BME280;11154;48.558;9.234;2022-12-24T03:16:50;97195.09;;;11.59;100.00
21980;BME280;11154;48.558;9.234;2022-12-24T03:18:52;97200.94;;;11.47;100.00
21980;BME280;11154;48.558;9.234;2022-12-24T03:21:00;97216.66;;;11.34;100.00
21980;BME280;11154;48.558;9.234;2022-12-24T03:23:06;97208.06;;;11.24;100.00
21980;BME280;11154;48.558;9.234;2022-12-24T03:25:08;97214.78;;;11.12;100.00
21980;BME280;11154;48.558;9.234;2022-12-24T03:27:11;97216.78;;;11.10;100.00
21980;BME280;11154;48.558;9.234;2022-12-24T03:29:13;97234.41;;;11.11;100.00
21980;BME280;11154;48.558;9.234;2022-12-24T03:31:15;97245.69;;;11.13;100.00
21980;BME280;11154;48.558;9.234;2022-12-24T03:33:18;97248.34;;;11.13;100.00
21980;BME280;11154;48.558;9.234;2022-12-24T03:35:19;97247.34;;;11.14;100.00
21980;BME280;11154;48.558;9.234;2022-12-24T03:37:23;97252.66;;;11.14;100.00
21980;BME280;11154;48.558;9.234;2022-12-24T03:39:26;97251.00;;;11.13;100.00
21980;BME280;11154;48.558;9.234;2022-12-24T03:41:27;97245.69;;;11.13;100.00
21980;BME280;11154;48.558;9.234;2022-12-24T03:43:29;97237.38;;;11.16;100.00
21980;BME280;11154;48.558;9.234;2022-12-24T03:45:30;97228.72;;;11.14;100.00
21980;BME280;11154;48.558;9.234;2022-12-24T03:47:32;97245.69;;;11.13;100.00
21980;BME280;11154;48.558;9.234;2022-12-24T03:49:34;97257.34;;;11.12;100.00
21980;BME280;11154;48.558;9.234;2022-12-24T03:51:35;97263.00;;;11.09;100.00
21980;BME280;11154;48.558;9.234;2022-12-24T03:53:38;97258.00;;;11.06;100.00
21980;BME280;11154;48.558;9.234;2022-12-24T03:55:40;97254.34;;;11.07;100.00
21980;BME280;11154;48.558;9.234;2022-12-24T03:57:42;97236.72;;;11.06;100.00
21980;BME280;11154;48.558;9.234;2022-12-24T03:59:43;97256.38;;;11.05;100.00
21980;BME280;11154;48.558;9.234;2022-12-24T04:01:45;97286.47;;;11.52;100.00
21980;BME280;11154;48.558;9.234;2022-12-24T04:03:46;97287.91;;;12.01;100.00
21980;BME280;11154;48.558;9.234;2022-12-24T04:05:59;97296.50;;;12.33;100.00
21980;BME280;11154;48.558;9.234;2022-12-24T04:08:01;97290.50;;;12.53;100.00
21980;BME280;11154;48.558;9.234;2022-12-24T04:10:05;97284.06;;;12.70;100.00
21980;BME280;11154;48.558;9.234;2022-12-24T04:12:07;97284.28;;;12.83;100.00
21980;BME280;11154;48.558;9.234;2022-12-24T04:14:09;97280.34;;;12.94;100.00
21980;BME280;11154;48.558;9.234;2022-12-24T04:16:13;97288.94;;;13.03;99.21
21980;BME280;11154;48.558;9.234;2022-12-24T04:18:15;97279.19;;;13.10;97.75
21980;BME280;11154;48.558;9.234;2022-12-24T04:20:17;97285.91;;;13.21;96.18
21980;BME280;11154;48.558;9.234;2022-12-24T04:22:18;97281.50;;;13.28;95.71
21980;BME280;11154;48.558;9.234;2022-12-24T04:24:20;97281.97;;;13.31;94.79
21980;BME280;11154;48.558;9.234;2022-12-24T04:26:23;97276.72;;;13.38;93.88
21980;BME280;11154;48.558;9.234;2022-12-24T04:28:25;97292.38;;;13.41;93.32
21980;BME280;11154;48.558;9.234;2022-12-24T04:30:26;97309.69;;;13.45;92.83
21980;BME280;11154;48.558;9.234;2022-12-24T04:32:28;97307.94;;;13.52;92.58
21980;BME280;11154;48.558;9.234;2022-12-24T04:34:29;97292.56;;;13.54;92.01
21980;BME280;11154;48.558;9.234;2022-12-24T04:36:31;97278.16;;;13.55;91.83
21980;BME280;11154;48.558;9.234;2022-12-24T04:38:33;97268.13;;;13.57;91.70
21980;BME280;11154;48.558;9.234;2022-12-24T04:40:35;97267.13;;;13.58;91.33
21980;BME280;11154;48.558;9.234;2022-12-24T04:42:38;97290.16;;;13.59;91.36
21980;BME280;11154;48.558;9.234;2022-12-24T04:44:40;97286.28;;;13.61;90.84
21980;BME280;11154;48.558;9.234;2022-12-24T04:46:41;97291.44;;;13.63;90.64
21980;BME280;11154;48.558;9.234;2022-12-24T04:48:43;97296.56;;;13.64;90.42
21980;BME280;11154;48.558;9.234;2022-12-24T04:50:45;97304.78;;;13.63;90.29
21980;BME280;11154;48.558;9.234;2022-12-24T04:52:47;97303.59;;;13.65;90.28
21980;BME280;11154;48.558;9.234;2022-12-24T04:54:49;97297.22;;;13.66;90.17
21980;BME280;11154;48.558;9.234;2022-12-24T04:56:50;97297.69;;;13.69;89.84
21980;BME280;11154;48.558;9.234;2022-12-24T04:58:53;97287.00;;;13.69;89.74
21980;BME280;11154;48.558;9.234;2022-12-24T05:00:55;97298.50;;;13.70;89.46
21980;BME280;11154;48.558;9.234;2022-12-24T05:02:57;97310.03;;;13.70;88.83
21980;BME280;11154;48.558;9.234;2022-12-24T05:04:58;97317.03;;;13.71;88.49
21980;BME280;11154;48.558;9.234;2022-12-24T05:07:00;97323.22;;;13.72;88.25
21980;BME280;11154;48.558;9.234;2022-12-24T05:09:02;97328.34;;;13.73;87.99
21980;BME280;11154;48.558;9.234;2022-12-24T05:11:04;97335.09;;;13.69;87.98
21980;BME280;11154;48.558;9.234;2022-12-24T05:13:06;97339.91;;;13.60;88.64
21980;BME280;11154;48.558;9.234;2022-12-24T05:15:09;97337.31;;;13.52;90.32
21980;BME280;11154;48.558;9.234;2022-12-24T05:17:11;97337.19;;;13.45;90.87
21980;BME280;11154;48.558;9.234;2022-12-24T05:19:13;97330.59;;;13.41;91.08
21980;BME280;11154;48.558;9.234;2022-12-24T05:21:18;97338.94;;;13.38;91.74
21980;BME280;11154;48.558;9.234;2022-12-24T05:23:22;97338.50;;;13.35;91.78
21980;BME280;11154;48.558;9.234;2022-12-24T05:25:41;97346.06;;;13.31;91.50
21980;BME280;11154;48.558;9.234;2022-12-24T05:28:01;97346.06;;;13.31;91.35
21980;BME280;11154;48.558;9.234;2022-12-24T05:30:03;97351.56;;;13.30;90.86
21980;BME280;11154;48.558;9.234;2022-12-24T05:32:06;97341.72;;;13.30;89.55
21980;BME280;11154;48.558;9.234;2022-12-24T05:34:08;97342.53;;;13.31;89.39
21980;BME280;11154;48.558;9.234;2022-12-24T05:36:10;97340.88;;;13.30;89.33
21980;BME280;11154;48.558;9.234;2022-12-24T05:38:11;97344.75;;;13.27;88.36
21980;BME280;11154;48.558;9.234;2022-12-24T05:40:13;97341.59;;;13.24;88.58
21980;BME280;11154;48.558;9.234;2022-12-24T05:42:15;97345.22;;;13.31;90.03
21980;BME280;11154;48.558;9.234;2022-12-24T05:44:17;97332.72;;;13.31;88.53
21980;BME280;11154;48.558;9.234;2022-12-24T05:46:20;97334.72;;;13.29;89.00
21980;BME280;11154;48.558;9.234;2022-12-24T05:48:24;97329.47;;;13.36;89.21
21980;BME280;11154;48.558;9.234;2022-12-24T05:50:26;97332.25;;;13.42;90.96
21980;BME280;11154;48.558;9.234;2022-12-24T05:52:27;97336.00;;;13.48;90.13
21980;BME280;11154;48.558;9.234;2022-12-24T05:54:29;97336.47;;;13.51;88.90
21980;BME280;11154;48.558;9.234;2022-12-24T05:56:31;97345.53;;;13.50;88.48
21980;BME280;11154;48.558;9.234;2022-12-24T05:58:33;97346.34;;;13.51;88.64
21980;BME280;11154;48.558;9.234;2022-12-24T06:00:35;97326.16;;;13.48;87.16
21980;BME280;11154;48.558;9.234;2022-12-24T06:02:36;97328.84;;;13.48;87.89
21980;BME280;11154;48.558;9.234;2022-12-24T06:04:39;97335.19;;;13.47;87.72
21980;BME280;11154;48.558;9.234;2022-12-24T06:06:41;97335.66;;;13.51;88.38
21980;BME280;11154;48.558;9.234;2022-12-24T06:08:42;97340.19;;;13.50;87.27
21980;BME280;11154;48.558;9.234;2022-12-24T06:10:44;97346.81;;;13.54;87.69
21980;BME280;11154;48.558;9.234;2022-12-24T06:12:46;97349.47;;;13.54;87.37
21980;BME280;11154;48.558;9.234;2022-12-24T06:14:47;97357.50;;;13.54;87.84
21980;BME280;11154;48.558;9.234;2022-12-24T06:16:49;97355.47;;;13.56;87.76
21980;BME280;11154;48.558;9.234;2022-12-24T06:18:51;97341.91;;;13.58;87.59
21980;BME280;11154;48.558;9.234;2022-12-24T06:20:55;97343.94;;;13.56;87.56
21980;BME280;11154;48.558;9.234;2022-12-24T06:22:57;97341.34;;;13.48;87.20
21980;BME280;11154;48.558;9.234;2022-12-24T06:24:59;97326.97;;;13.49;87.68
21980;BME280;11154;48.558;9.234;2022-12-24T06:27:01;97327.84;;;13.49;87.42
21980;BME280;11154;48.558;9.234;2022-12-24T06:29:02;97333.53;;;13.46;86.98
21980;BME280;11154;48.558;9.234;2022-12-24T06:31:06;97332.06;;;13.44;86.97
21980;BME280;11154;48.558;9.234;2022-12-24T06:33:11;97338.06;;;13.46;87.37
21980;BME280;11154;48.558;9.234;2022-12-24T06:35:12;97350.03;;;13.50;87.36
21980;BME280;11154;48.558;9.234;2022-12-24T06:37:15;97357.38;;;13.48;86.78
21980;BME280;11154;48.558;9.234;2022-12-24T06:39:21;97362.72;;;13.48;86.44
21980;BME280;11154;48.558;9.234;2022-12-24T06:41:22;97366.69;;;13.52;88.13
21980;BME280;11154;48.558;9.234;2022-12-24T06:43:24;97370.47;;;13.57;90.87
21980;BME280;11154;48.558;9.234;2022-12-24T06:45:26;97370.03;;;13.54;87.53
21980;BME280;11154;48.558;9.234;2022-12-24T06:47:27;97364.84;;;13.52;86.57
21980;BME280;11154;48.558;9.234;2022-12-24T06:49:29;97369.38;;;13.52;86.12
21980;BME280;11154;48.558;9.234;2022-12-24T06:51:31;97373.72;;;13.53;85.52
21980;BME280;11154;48.558;9.234;2022-12-24T06:53:34;97379.69;;;13.55;85.23
21980;BME280;11154;48.558;9.234;2022-12-24T06:55:35;97384.75;;;13.50;84.93
21980;BME280;11154;48.558;9.234;2022-12-24T06:57:37;97395.81;;;13.47;85.29
21980;BME280;11154;48.558;9.234;2022-12-24T06:59:39;97394.22;;;13.38;84.50
21980;BME280;11154;48.558;9.234;2022-12-24T07:01:40;97404.56;;;13.41;84.89
21980;BME280;11154;48.558;9.234;2022-12-24T07:03:42;97402.69;;;13.41;85.10
21980;BME280;11154;48.558;9.234;2022-12-24T07:05:43;97408.84;;;13.42;85.04
21980;BME280;11154;48.558;9.234;2022-12-24T07:07:45;97408.84;;;13.42;84.96
21980;BME280;11154;48.558;9.234;2022-12-24T07:09:48;97415.88;;;13.43;85.82
21980;BME280;11154;48.558;9.234;2022-12-24T07:11:50;97413.66;;;13.46;85.77
21980;BME280;11154;48.558;9.234;2022-12-24T07:13:51;97411.66;;;13.48;85.99
21980;BME280;11154;48.558;9.234;2022-12-24T07:15:56;97411.09;;;13.53;85.31
21980;BME280;11154;48.558;9.234;2022-12-24T07:17:58;97412.59;;;13.55;85.53
21980;BME280;11154;48.558;9.234;2022-12-24T07:19:59;97409.72;;;13.57;85.66
21980;BME280;11154;48.558;9.234;2022-12-24T07:22:01;97415.44;;;13.54;85.59
21980;BME280;11154;48.558;9.234;2022-12-24T07:24:03;97428.13;;;13.52;85.82
21980;BME280;11154;48.558;9.234;2022-12-24T07:26:06;97432.63;;;13.51;85.77
21980;BME280;11154;48.558;9.234;2022-12-24T07:28:08;97448.03;;;13.49;86.02
21980;BME280;11154;48.558;9.234;2022-12-24T07:30:10;97441.03;;;13.48;86.02
21980;BME280;11154;48.558;9.234;2022-12-24T07:32:12;97445.38;;;13.49;85.94
21980;BME280;11154;48.558;9.234;2022-12-24T07:34:14;97446.00;;;13.51;85.92
21980;BME280;11154;48.558;9.234;2022-12-24T07:36:18;97458.53;;;13.51;85.98
21980;BME280;11154;48.558;9.234;2022-12-24T07:38:20;97456.88;;;13.50;85.92
21980;BME280;11154;48.558;9.234;2022-12-24T07:40:21;97455.41;;;13.47;85.26
21980;BME280;11154;48.558;9.234;2022-12-24T07:42:25;97447.38;;;13.47;85.27
21980;BME280;11154;48.558;9.234;2022-12-24T07:44:26;97448.19;;;13.48;84.71
21980;BME280;11154;48.558;9.234;2022-12-24T07:46:28;97451.06;;;13.46;85.15
21980;BME280;11154;48.558;9.234;2022-12-24T07:48:31;97461.28;;;13.43;85.16
21980;BME280;11154;48.558;9.234;2022-12-24T07:50:33;97464.59;;;13.45;84.78
21980;BME280;11154;48.558;9.234;2022-12-24T07:52:35;97462.22;;;13.50;84.43
21980;BME280;11154;48.558;9.234;2022-12-24T07:54:36;97465.88;;;13.49;84.36
21980;BME280;11154;48.558;9.234;2022-12-24T07:56:38;97472.91;;;13.50;83.93
21980;BME280;11154;48.558;9.234;2022-12-24T07:58:41;97467.56;;;13.50;83.85
21980;BME280;11154;48.558;9.234;2022-12-24T08:00:44;97481.56;;;13.52;84.02
21980;BME280;11154;48.558;9.234;2022-12-24T08:02:45;97478.25;;;13.50;84.15
21980;BME280;11154;48.558;9.234;2022-12-24T08:04:47;97480.25;;;13.48;83.84
21980;BME280;11154;48.558;9.234;2022-12-24T08:06:48;97477.97;;;13.45;84.14
21980;BME280;11154;48.558;9.234;2022-12-24T08:08:50;97485.97;;;13.45;84.53
21980;BME280;11154;48.558;9.234;2022-12-24T08:10:52;97493.16;;;13.44;84.52
21980;BME280;11154;48.558;9.234;2022-12-24T08:12:53;97490.50;;;13.44;84.27
21980;BME280;11154;48.558;9.234;2022-12-24T08:14:56;97485.16;;;13.44;84.31
21980;BME280;11154;48.558;9.234;2022-12-24T08:16:58;97487.81;;;13.44;84.21
21980;BME280;11154;48.558;9.234;2022-12-24T08:19:00;97496.66;;;13.45;83.97
21980;BME280;11154;48.558;9.234;2022-12-24T08:21:02;97499.13;;;13.46;83.85
21980;BME280;11154;48.558;9.234;2022-12-24T08:23:04;97506.63;;;13.51;84.01
21980;BME280;11154;48.558;9.234;2022-12-24T08:25:06;97502.75;;;13.53;83.62
21980;BME280;11154;48.558;9.234;2022-12-24T08:27:08;97509.50;;;13.64;83.01
21980;BME280;11154;48.558;9.234;2022-12-24T08:29:10;97496.00;;;13.79;81.70
21980;BME280;11154;48.558;9.234;2022-12-24T08:31:13;97492.69;;;13.77;81.11
21980;BME280;11154;48.558;9.234;2022-12-24T08:33:15;97497.19;;;13.77;80.85
21980;BME280;11154;48.558;9.234;2022-12-24T08:35:16;97495.72;;;13.74;81.19
21980;BME280;11154;48.558;9.234;2022-12-24T08:37:18;97509.25;;;13.73;81.18
21980;BME280;11154;48.558;9.234;2022-12-24T08:39:20;97502.72;;;13.75;81.51
21980;BME280;11154;48.558;9.234;2022-12-24T08:41:21;97496.38;;;13.76;81.16
21980;BME280;11154;48.558;9.234;2022-12-24T08:43:23;97511.59;;;13.76;81.02
21980;BME280;11154;48.558;9.234;2022-12-24T08:45:26;97513.06;;;13.78;80.96
21980;BME280;11154;48.558;9.234;2022-12-24T08:47:29;97506.88;;;13.78;81.13
21980;BME280;11154;48.558;9.234;2022-12-24T08:49:30;97505.78;;;13.72;82.06
21980;BME280;11154;48.558;9.234;2022-12-24T08:51:32;97515.81;;;13.70;82.07
21980;BME280;11154;48.558;9.234;2022-12-24T08:53:34;97511.13;;;13.72;82.27
21980;BME280;11154;48.558;9.234;2022-12-24T08:55:36;97509.91;;;13.75;82.64
21980;BME280;11154;48.558;9.234;2022-12-24T08:57:38;97508.72;;;13.77;82.01
21980;BME280;11154;48.558;9.234;2022-12-24T08:59:40;97514.06;;;13.77;80.89
21980;BME280;11154;48.558;9.234;2022-12-24T09:01:42;97524.38;;;13.80;80.40
21980;BME280;11154;48.558;9.234;2022-12-24T09:03:45;97520.34;;;13.84;80.48
21980;BME280;11154;48.558;9.234;2022-12-24T09:05:47;97514.00;;;13.85;79.91
21980;BME280;11154;48.558;9.234;2022-12-24T09:07:49;97519.16;;;13.87;80.21
21980;BME280;11154;48.558;9.234;2022-12-24T09:09:50;97524.78;;;13.92;80.18
21980;BME280;11154;48.558;9.234;2022-12-24T09:11:52;97527.25;;;13.93;80.19
21980;BME280;11154;48.558;9.234;2022-12-24T09:13:54;97529.59;;;13.96;80.25
21980;BME280;11154;48.558;9.234;2022-12-24T09:15:55;97528.19;;;14.00;79.91
21980;BME280;11154;48.558;9.234;2022-12-24T09:17:57;97531.53;;;14.02;80.29
21980;BME280;11154;48.558;9.234;2022-12-24T09:20:00;97537.53;;;14.04;80.14
21980;BME280;11154;48.558;9.234;2022-12-24T09:22:02;97534.88;;;14.04;80.08
21980;BME280;11154;48.558;9.234;2022-12-24T09:24:04;97537.16;;;14.07;80.16
21980;BME280;11154;48.558;9.234;2022-12-24T09:26:06;97540.50;;;14.09;80.73
21980;BME280;11154;48.558;9.234;2022-12-24T09:28:08;97549.16;;;14.11;80.78
21980;BME280;11154;48.558;9.234;2022-12-24T09:30:11;97556.19;;;14.12;81.23
21980;BME280;11154;48.558;9.234;2022-12-24T09:32:13;97546.50;;;14.11;82.21
21980;BME280;11154;48.558;9.234;2022-12-24T09:34:15;97542.50;;;14.07;83.40
21980;BME280;11154;48.558;9.234;2022-12-24T09:36:18;97543.88;;;14.03;83.26
21980;BME280;11154;48.558;9.234;2022-12-24T09:38:20;97534.75;;;13.98;82.70
21980;BME280;11154;48.558;9.234;2022-12-24T09:40:24;97552.88;;;14.10;82.32
21980;BME280;11154;48.558;9.234;2022-12-24T09:42:37;97543.50;;;14.06;81.34
21980;BME280;11154;48.558;9.234;2022-12-24T09:44:45;97539.56;;;14.02;80.76
21980;BME280;11154;48.558;9.234;2022-12-24T09:46:48;97541.22;;;14.03;81.31
21980;BME280;11154;48.558;9.234;2022-12-24T09:48:55;97555.59;;;14.02;81.78
21980;BME280;11154;48.558;9.234;2022-12-24T09:51:00;97548.47;;;14.17;81.54
21980;BME280;11154;48.558;9.234;2022-12-24T09:53:13;97556.19;;;14.12;79.84
21980;BME280;11154;48.558;9.234;2022-12-24T09:55:20;97541.44;;;14.16;78.94
21980;BME280;11154;48.558;9.234;2022-12-24T09:57:27;97536.66;;;14.12;79.12
21980;BME280;11154;48.558;9.234;2022-12-24T09:59:38;97551.19;;;14.09;78.55
21980;BME280;11154;48.558;9.234;2022-12-24T10:01:41;97545.69;;;14.11;78.75
21980;BME280;11154;48.558;9.234;2022-12-24T10:03:43;97552.88;;;14.10;78.83
21980;BME280;11154;48.558;9.234;2022-12-24T10:05:52;97553.69;;;14.11;79.03
21980;BME280;11154;48.558;9.234;2022-12-24T10:08:04;97551.84;;;14.11;78.37
21980;BME280;11154;48.558;9.234;2022-12-24T10:10:16;97555.00;;;14.15;79.65
21980;BME280;11154;48.558;9.234;2022-12-24T10:12:24;97550.94;;;14.19;79.79
21980;BME280;11154;48.558;9.234;2022-12-24T10:14:38;97554.09;;;14.22;79.23
21980;BME280;11154;48.558;9.234;2022-12-24T10:16:50;97554.38;;;14.27;79.57
21980;BME280;11154;48.558;9.234;2022-12-24T10:19:00;97558.31;;;14.31;79.49
21980;BME280;11154;48.558;9.234;2022-12-24T10:21:09;97547.94;;;14.36;78.55
21980;BME280;11154;48.558;9.234;2022-12-24T10:23:19;97555.84;;;14.44;78.64
21980;BME280;11154;48.558;9.234;2022-12-24T10:25:28;97553.47;;;14.49;78.35
21980;BME280;11154;48.558;9.234;2022-12-24T10:27:34;97561.09;;;14.52;78.80
21980;BME280;11154;48.558;9.234;2022-12-24T10:29:39;97564.25;;;14.55;77.78
21980;BME280;11154;48.558;9.234;2022-12-24T10:31:49;97571.63;;;14.53;76.38
21980;BME280;11154;48.558;9.234;2022-12-24T10:33:56;97568.94;;;14.53;76.36
21980;BME280;11154;48.558;9.234;2022-12-24T10:35:58;97576.63;;;14.56;76.65
21980;BME280;11154;48.558;9.234;2022-12-24T10:38:01;97579.94;;;14.58;76.55
21980;BME280;11154;48.558;9.234;2022-12-24T10:40:04;97580.78;;;14.59;75.67
21980;BME280;11154;48.558;9.234;2022-12-24T10:42:08;97569.59;;;14.55;72.85
21980;BME280;11154;48.558;9.234;2022-12-24T10:44:16;97579.75;;;14.60;75.08
21980;BME280;11154;48.558;9.234;2022-12-24T10:46:20;97575.34;;;14.67;75.86
21980;BME280;11154;48.558;9.234;2022-12-24T10:48:26;97565.63;;;14.66;74.13
21980;BME280;11154;48.558;9.234;2022-12-24T10:50:31;97559.88;;;14.69;74.57
21980;BME280;11154;48.558;9.234;2022-12-24T10:52:36;97560.34;;;14.72;74.86